createdAt,value
2018-04-11T00:00:30.903Z,18.60
2018-04-11T00:02:58.757Z,18.50
2018-04-11T00:05:26.275Z,18.50
2018-04-11T00:07:54.735Z,18.50
2018-04-11T00:10:22.178Z,18.50
2018-04-11T00:12:50.822Z,18.40
2018-04-11T00:15:18.962Z,18.40
2018-04-11T00:17:47.023Z,18.40
2018-04-11T00:20:14.506Z,18.50
2018-04-11T00:22:42.012Z,18.50
2018-04-11T00:25:11.496Z,18.40
2018-04-11T00:27:38.939Z,18.40
2018-04-11T00:30:06.415Z,18.50
2018-04-11T00:32:34.362Z,18.50
2018-04-11T00:35:02.299Z,18.50
2018-04-11T00:37:30.098Z,18.40
2018-04-11T00:39:57.583Z,18.40
2018-04-11T00:42:26.352Z,18.30
2018-04-11T00:44:54.587Z,18.30
2018-04-11T00:47:22.011Z,18.20
2018-04-11T00:49:50.258Z,18.10
2018-04-11T00:52:20.282Z,18.10
2018-04-11T00:54:48.212Z,18.10
2018-04-11T00:57:15.696Z,18.10
2018-04-11T00:59:43.387Z,18.10
2018-04-11T01:02:11.973Z,18.10
2018-04-11T01:04:40.297Z,18.10
2018-04-11T01:07:07.736Z,18.10
2018-04-11T01:09:36.008Z,18.00
2018-04-11T01:12:03.824Z,18.00
2018-04-11T01:14:31.433Z,18.00
2018-04-11T01:16:59.511Z,18.10
2018-04-11T01:19:27.648Z,18.00
2018-04-11T01:21:55.110Z,18.00
2018-04-11T01:24:22.578Z,18.10
2018-04-11T01:26:50.401Z,18.10
2018-04-11T01:29:18.732Z,18.00
2018-04-11T01:31:47.384Z,18.00
2018-04-11T01:34:15.626Z,18.00
2018-04-11T01:36:43.398Z,17.90
2018-04-11T01:39:11.267Z,18.00
2018-04-11T01:41:38.945Z,17.90
2018-04-11T01:44:07.145Z,17.80
2018-04-11T01:46:34.639Z,17.80
2018-04-11T01:49:02.075Z,17.80
2018-04-11T01:51:29.560Z,17.80
2018-04-11T01:53:57.085Z,17.70
2018-04-11T01:56:24.997Z,17.70
2018-04-11T01:58:52.465Z,17.70
2018-04-11T02:01:20.371Z,17.70
2018-04-11T02:03:47.835Z,17.80
2018-04-11T02:06:15.287Z,17.80
2018-04-11T02:08:42.763Z,17.80
2018-04-11T02:11:10.611Z,17.80
2018-04-11T02:13:38.075Z,17.70
2018-04-11T02:16:05.899Z,17.70
2018-04-11T02:18:34.555Z,17.70
2018-04-11T02:21:03.317Z,17.70
2018-04-11T02:23:31.159Z,17.70
2018-04-11T02:25:58.603Z,17.70
2018-04-11T02:28:26.844Z,17.60
2018-04-11T02:30:54.794Z,17.60
2018-04-11T02:33:22.277Z,17.50
2018-04-11T02:35:50.227Z,17.40
2018-04-11T02:38:17.687Z,17.40
2018-04-11T02:40:45.241Z,17.30
2018-04-11T02:43:13.249Z,17.30
2018-04-11T02:45:41.461Z,17.30
2018-04-11T02:48:08.923Z,17.30
2018-04-11T02:50:36.379Z,17.30
2018-04-11T02:53:03.853Z,17.20
2018-04-11T02:55:32.233Z,17.20
2018-04-11T02:57:59.897Z,17.20
2018-04-11T03:00:28.275Z,17.20
2018-04-11T03:02:55.723Z,17.20
2018-04-11T03:05:23.372Z,17.20
2018-04-11T03:07:51.446Z,17.20
2018-04-11T03:10:19.530Z,17.20
2018-04-11T03:12:46.999Z,17.20
2018-04-11T03:15:14.446Z,17.20
2018-04-11T03:17:42.512Z,17.20
2018-04-11T03:20:09.995Z,17.10
2018-04-11T03:22:37.461Z,17.00
2018-04-11T03:25:06.016Z,16.80
2018-04-11T03:27:33.459Z,16.80
2018-04-11T03:30:00.942Z,16.80
2018-04-11T03:32:28.687Z,16.70
2018-04-11T03:34:56.517Z,16.60
2018-04-11T03:37:23.913Z,16.50
2018-04-11T03:39:51.368Z,16.50
2018-04-11T03:42:19.241Z,16.40
2018-04-11T03:44:46.683Z,16.30
2018-04-11T03:47:14.157Z,16.30
2018-04-11T03:49:41.614Z,16.20
2018-04-11T03:52:09.084Z,16.10
2018-04-11T03:54:37.142Z,16.10
2018-04-11T03:57:05.396Z,16.00
2018-04-11T03:59:33.272Z,16.00
2018-04-11T04:02:01.238Z,16.00
2018-04-11T04:04:28.684Z,16.00
2018-04-11T04:06:56.568Z,16.00
2018-04-11T04:09:24.219Z,16.00
2018-04-11T04:11:51.764Z,15.90
2018-04-11T04:14:32.453Z,15.90
2018-04-11T04:17:12.246Z,15.90
2018-04-11T04:22:44.901Z,15.70
2018-04-11T04:25:12.761Z,15.70
2018-04-11T04:27:40.224Z,15.60
2018-04-11T04:30:07.667Z,15.60
2018-04-11T04:32:35.412Z,15.50
2018-04-11T04:35:03.292Z,15.50
2018-04-11T04:37:30.793Z,15.40
2018-04-11T04:39:58.999Z,15.40
2018-04-11T04:42:26.800Z,15.30
2018-04-11T04:44:54.317Z,15.40
2018-04-11T04:47:22.423Z,15.30
2018-04-11T04:49:49.889Z,15.30
2018-04-11T04:52:17.332Z,15.30
2018-04-11T04:54:45.207Z,15.20
2018-04-11T04:57:12.652Z,15.20
2018-04-11T04:59:40.415Z,15.10
2018-04-11T05:02:08.194Z,15.00
2018-04-11T05:04:36.089Z,15.00
2018-04-11T05:07:04.299Z,15.00
2018-04-11T05:09:32.089Z,15.00
2018-04-11T05:11:59.597Z,14.90
2018-04-11T05:14:27.719Z,14.90
2018-04-11T05:16:56.578Z,14.90
2018-04-11T05:19:24.382Z,14.90
2018-04-11T05:21:51.935Z,14.90
2018-04-11T05:24:19.419Z,14.80
2018-04-11T05:26:47.734Z,14.70
2018-04-11T05:29:15.221Z,14.70
2018-04-11T05:31:42.987Z,14.70
2018-04-11T05:34:10.619Z,14.70
2018-04-11T05:36:38.309Z,14.70
2018-04-11T05:39:05.784Z,14.70
2018-04-11T05:41:33.736Z,14.70
2018-04-11T05:44:01.226Z,14.70
2018-04-11T05:46:29.542Z,14.80
2018-04-11T05:48:59.819Z,14.80
2018-04-11T05:51:28.395Z,14.80
2018-04-11T05:53:55.833Z,14.80
2018-04-11T05:56:23.677Z,14.80
2018-04-11T05:58:51.133Z,14.80
2018-04-11T06:01:18.987Z,14.80
2018-04-11T06:03:46.427Z,14.90
2018-04-11T06:06:13.971Z,14.90
2018-04-11T06:08:42.521Z,14.90
2018-04-11T06:11:10.753Z,14.90
2018-04-11T06:13:38.196Z,14.90
2018-04-11T06:16:06.117Z,14.90
2018-04-11T06:18:34.084Z,14.90
2018-04-11T06:21:01.854Z,15.00
2018-04-11T06:23:29.304Z,15.00
2018-04-11T06:25:56.803Z,15.00
2018-04-11T06:28:24.263Z,15.10
2018-04-11T06:30:51.727Z,15.20
2018-04-11T06:33:19.437Z,15.20
2018-04-11T06:35:47.350Z,15.20
2018-04-11T06:38:14.813Z,15.30
2018-04-11T06:40:42.418Z,15.40
2018-04-11T06:43:10.947Z,15.40
2018-04-11T06:45:38.402Z,15.40
2018-04-11T06:48:07.239Z,15.60
2018-04-11T06:50:34.702Z,15.60
2018-04-11T06:53:02.212Z,15.60
2018-04-11T06:55:29.962Z,15.60
2018-04-11T06:57:58.399Z,15.70
2018-04-11T07:00:25.843Z,15.60
2018-04-11T07:02:53.379Z,15.70
2018-04-11T07:05:21.191Z,15.70
2018-04-11T07:07:48.655Z,15.80
2018-04-11T07:10:16.263Z,15.90
2018-04-11T07:12:43.716Z,15.90
2018-04-11T07:15:11.180Z,16.00
2018-04-11T07:17:39.812Z,16.10
2018-04-11T07:20:07.275Z,16.20
2018-04-11T07:22:35.467Z,16.20
2018-04-11T07:25:02.984Z,16.30
2018-04-11T07:27:32.003Z,16.30
2018-04-11T07:30:00.242Z,16.40
2018-04-11T07:32:28.239Z,16.40
2018-04-11T07:34:56.084Z,16.50
2018-04-11T07:37:23.535Z,16.50
2018-04-11T07:39:51.008Z,16.60
2018-04-11T07:42:19.615Z,16.70
2018-04-11T07:44:47.822Z,16.80
2018-04-11T07:47:15.613Z,16.70
2018-04-11T07:49:43.225Z,16.80
2018-04-11T07:52:10.856Z,16.90
2018-04-11T07:54:38.695Z,17.00
2018-04-11T07:57:06.586Z,17.00
2018-04-11T07:59:34.599Z,17.10
2018-04-11T08:02:02.060Z,17.20
2018-04-11T08:04:29.511Z,17.20
2018-04-11T08:06:56.974Z,17.20
2018-04-11T08:09:24.429Z,17.30
2018-04-11T08:11:52.090Z,17.30
2018-04-11T08:14:19.549Z,17.40
2018-04-11T08:16:47.242Z,17.50
2018-04-11T08:19:15.164Z,17.50
2018-04-11T08:21:42.889Z,17.50
2018-04-11T08:24:10.327Z,17.60
2018-04-11T08:26:38.112Z,17.60
2018-04-11T08:29:07.056Z,17.70
2018-04-11T08:31:34.549Z,17.70
2018-04-11T08:34:02.407Z,17.80
2018-04-11T08:36:30.183Z,17.80
2018-04-11T08:38:57.656Z,18.00
2018-04-11T08:41:25.461Z,18.00
2018-04-11T08:43:53.028Z,18.10
2018-04-11T08:46:20.713Z,18.20
2018-04-11T08:48:48.758Z,18.30
2018-04-11T08:51:16.210Z,18.40
2018-04-11T08:53:44.173Z,18.50
2018-04-11T08:56:11.871Z,18.60
2018-04-11T08:58:39.317Z,18.70
2018-04-11T09:01:06.813Z,18.80
2018-04-11T09:03:34.263Z,18.80
2018-04-11T09:06:02.006Z,18.90
2018-04-11T09:08:29.487Z,19.00
2018-04-11T09:10:56.923Z,19.00
2018-04-11T09:13:24.498Z,19.10
2018-04-11T09:15:52.345Z,19.20
2018-04-11T09:18:20.149Z,19.30
2018-04-11T09:20:48.839Z,19.40
2018-04-11T09:23:16.781Z,19.40
2018-04-11T09:25:45.032Z,19.60
2018-04-11T09:28:12.561Z,19.60
2018-04-11T09:30:40.103Z,19.70
2018-04-11T09:33:08.889Z,19.80
2018-04-11T09:35:37.315Z,19.90
2018-04-11T09:38:04.764Z,19.90
2018-04-11T09:40:32.240Z,19.90
2018-04-11T09:43:00.099Z,20.00
2018-04-11T09:45:27.855Z,20.10
2018-04-11T09:47:55.749Z,20.20
2018-04-11T09:50:23.229Z,20.40
2018-04-11T09:52:51.439Z,20.60
2018-04-11T09:55:19.158Z,20.60
2018-04-11T09:57:47.364Z,20.80
2018-04-11T10:00:14.846Z,20.80
2018-04-11T10:02:42.299Z,20.90
2018-04-11T10:05:09.766Z,21.00
2018-04-11T10:07:37.324Z,21.10
2018-04-11T10:10:04.869Z,21.20
2018-04-11T10:12:32.340Z,21.30
2018-04-11T10:14:59.813Z,21.30
2018-04-11T10:17:27.539Z,21.40
2018-04-11T10:19:55.228Z,21.50
2018-04-11T10:22:22.758Z,21.60
2018-04-11T10:24:50.212Z,21.60
2018-04-11T10:27:17.715Z,21.50
2018-04-11T10:29:45.150Z,21.40
2018-04-11T10:32:13.054Z,21.30
2018-04-11T10:34:41.602Z,21.20
2018-04-11T10:37:09.106Z,21.10
2018-04-11T10:39:37.321Z,20.90
2018-04-11T10:42:05.107Z,20.90
2018-04-11T10:44:32.560Z,20.90
2018-04-11T10:47:00.632Z,20.80
2018-04-11T10:49:28.085Z,20.80
2018-04-11T10:51:55.582Z,20.70
2018-04-11T10:54:23.791Z,20.60
2018-04-11T10:56:51.489Z,20.60
2018-04-11T10:59:20.624Z,20.60
2018-04-11T11:01:48.339Z,20.60
2018-04-11T11:04:15.779Z,20.60
2018-04-11T11:06:43.240Z,20.60
2018-04-11T11:09:10.750Z,20.50
2018-04-11T11:11:38.868Z,20.50
2018-04-11T11:14:06.323Z,20.50
2018-04-11T11:16:35.972Z,20.50
2018-04-11T11:19:04.140Z,20.50
2018-04-11T11:21:31.586Z,20.50
2018-04-11T11:23:59.063Z,20.50
2018-04-11T11:26:27.275Z,20.60
2018-04-11T11:28:55.363Z,20.50
2018-04-11T11:31:22.803Z,20.60
2018-04-11T11:33:50.613Z,20.60
2018-04-11T11:36:19.115Z,20.60
2018-04-11T11:38:47.386Z,20.60
2018-04-11T11:41:15.166Z,20.60
2018-04-11T11:43:42.656Z,20.70
2018-04-11T11:46:10.107Z,20.70
2018-04-11T11:48:38.021Z,20.60
2018-04-11T11:51:06.240Z,20.60
2018-04-11T11:53:33.791Z,20.60
2018-04-11T11:56:01.896Z,20.50
2018-04-11T11:58:29.360Z,20.40
2018-04-11T12:00:56.803Z,20.40
2018-04-11T12:03:24.279Z,20.40
2018-04-11T12:05:51.718Z,20.40
2018-04-11T12:08:19.213Z,20.40
2018-04-11T12:10:49.607Z,20.40
2018-04-11T12:13:17.058Z,20.40
2018-04-11T12:15:44.872Z,20.30
2018-04-11T12:18:12.796Z,20.30
2018-04-11T12:20:40.268Z,20.20
2018-04-11T12:23:07.719Z,20.20
2018-04-11T12:25:36.191Z,20.10
2018-04-11T12:28:04.570Z,20.00
2018-04-11T12:30:32.542Z,20.00
2018-04-11T12:33:00.039Z,19.90
2018-04-11T12:35:28.575Z,19.80
2018-04-11T12:37:56.031Z,19.80
2018-04-11T12:40:23.510Z,19.90
2018-04-11T12:42:51.357Z,19.90
2018-04-11T12:45:18.864Z,20.00
2018-04-11T12:47:46.783Z,20.10
2018-04-11T12:50:14.250Z,20.20
2018-04-11T12:52:41.821Z,20.40
2018-04-11T12:55:09.624Z,20.60
2018-04-11T12:57:37.083Z,20.80
2018-04-11T13:00:04.557Z,20.90
2018-04-11T13:02:32.119Z,20.90
2018-04-11T13:04:59.827Z,20.90
2018-04-11T13:07:28.057Z,20.90
2018-04-11T13:09:55.547Z,20.80
2018-04-11T13:12:23.764Z,20.80
2018-04-11T13:14:52.259Z,21.00
2018-04-11T13:17:19.955Z,21.00
2018-04-11T13:19:47.800Z,21.20
2018-04-11T13:22:15.261Z,21.30
2018-04-11T13:24:43.198Z,21.40
2018-04-11T13:27:10.666Z,21.40
2018-04-11T13:29:38.132Z,21.40
2018-04-11T13:32:05.611Z,21.50
2018-04-11T13:34:33.447Z,21.50
2018-04-11T13:37:01.173Z,21.50
2018-04-11T13:39:29.409Z,21.30
2018-04-11T13:41:57.886Z,21.20
2018-04-11T13:44:25.356Z,21.20
2018-04-11T13:46:53.210Z,21.20
2018-04-11T13:49:20.907Z,21.10
2018-04-11T13:51:49.122Z,21.10
2018-04-11T13:54:16.570Z,21.00
2018-04-11T13:56:44.592Z,21.00
2018-04-11T13:59:12.439Z,21.10
2018-04-11T14:01:40.647Z,21.00
2018-04-11T14:04:08.962Z,21.00
2018-04-11T14:06:36.434Z,21.00
2018-04-11T14:09:03.913Z,21.00
2018-04-11T14:11:31.404Z,20.90
2018-04-11T14:13:58.886Z,20.90
2018-04-11T14:16:26.879Z,20.80
2018-04-11T14:18:54.748Z,20.80
2018-04-11T14:21:22.195Z,20.70
2018-04-11T14:23:49.863Z,20.70
2018-04-11T14:26:17.314Z,20.70
2018-04-11T14:28:44.777Z,20.60
2018-04-11T14:31:12.228Z,20.60
2018-04-11T14:33:39.690Z,20.70
2018-04-11T14:36:07.575Z,20.70
2018-04-11T14:38:35.015Z,20.90
2018-04-11T14:41:02.896Z,20.90
2018-04-11T14:43:30.385Z,21.10
2018-04-11T14:45:57.898Z,21.20
2018-04-11T14:48:25.909Z,21.20
2018-04-11T14:50:53.397Z,21.30
2018-04-11T14:53:25.898Z,21.30
2018-04-11T14:55:53.671Z,21.40
2018-04-11T14:58:21.141Z,21.50
2018-04-11T15:00:49.420Z,21.60
2018-04-11T15:03:17.641Z,21.60
2018-04-11T15:05:45.883Z,21.60
2018-04-11T15:08:14.124Z,21.60
2018-04-11T15:10:41.684Z,21.60
2018-04-11T15:13:09.456Z,21.60
2018-04-11T15:15:38.976Z,21.50
2018-04-11T15:18:08.967Z,21.50
2018-04-11T15:20:36.474Z,21.50
2018-04-11T15:23:03.958Z,21.50
2018-04-11T15:25:31.468Z,21.40
2018-04-11T15:27:59.673Z,21.40
2018-04-11T15:30:27.139Z,21.30
2018-04-11T15:32:54.619Z,21.40
2018-04-11T15:35:22.280Z,21.40
2018-04-11T15:37:49.784Z,21.40
2018-04-11T15:40:17.231Z,21.40
2018-04-11T15:42:45.775Z,21.40
2018-04-11T15:45:13.263Z,21.30
2018-04-11T15:47:41.727Z,21.30
2018-04-11T15:50:09.237Z,21.30
2018-04-11T15:52:36.784Z,21.30
2018-04-11T15:55:05.215Z,21.30
2018-04-11T15:57:32.690Z,21.30
2018-04-11T16:00:00.917Z,21.20
2018-04-11T16:02:28.498Z,21.20
2018-04-11T16:04:55.957Z,21.10
2018-04-11T16:07:23.939Z,21.10
2018-04-11T16:09:51.466Z,21.10
2018-04-11T16:12:19.007Z,21.00
2018-04-11T16:14:46.571Z,20.80
2018-04-11T16:17:14.434Z,20.70
2018-04-11T16:19:42.228Z,20.50
2018-04-11T16:22:10.110Z,20.40
2018-04-11T16:24:37.576Z,20.30
2018-04-11T16:27:05.829Z,20.10
2018-04-11T16:29:33.264Z,20.10
2018-04-11T16:32:00.812Z,20.00
2018-04-11T16:34:28.255Z,19.90
2018-04-11T16:36:56.169Z,19.90
2018-04-11T16:39:23.619Z,19.80
2018-04-11T16:41:51.494Z,19.80
2018-04-11T16:44:19.281Z,19.70
2018-04-11T16:46:47.394Z,19.70
2018-04-11T16:49:15.208Z,19.60
2018-04-11T16:51:43.983Z,19.50
2018-04-11T16:54:11.458Z,19.50
2018-04-11T16:56:40.030Z,19.50
2018-04-11T16:59:08.999Z,19.40
2018-04-11T17:01:37.387Z,19.40
2018-04-11T17:04:05.117Z,19.40
2018-04-11T17:06:32.590Z,19.40
2018-04-11T17:09:00.048Z,19.40
2018-04-11T17:11:27.735Z,19.40
2018-04-11T17:13:55.251Z,19.50
2018-04-11T17:16:22.956Z,19.50
2018-04-11T17:18:50.718Z,19.50
2018-04-11T17:21:30.078Z,19.50
2018-04-11T17:24:10.183Z,19.40
2018-04-11T17:26:49.619Z,19.40
2018-04-11T17:29:28.918Z,19.40
2018-04-11T17:31:57.780Z,19.40
2018-04-11T17:34:25.221Z,19.30
2018-04-11T17:36:53.083Z,19.40
2018-04-11T17:39:20.960Z,19.40
2018-04-11T17:41:48.836Z,19.40
2018-04-11T17:44:17.064Z,19.40
2018-04-11T17:46:44.905Z,19.40
2018-04-11T17:49:12.820Z,19.30
2018-04-11T17:51:40.378Z,19.30
2018-04-11T17:54:07.860Z,19.20
2018-04-11T17:56:35.669Z,19.20
2018-04-11T17:59:04.712Z,19.10
2018-04-11T18:01:32.262Z,19.10
2018-04-11T18:03:59.735Z,19.00
2018-04-11T18:06:27.958Z,18.90
2018-04-11T18:08:55.414Z,18.90
2018-04-11T18:11:24.298Z,18.80
2018-04-11T18:13:51.997Z,18.80
2018-04-11T18:16:20.692Z,18.70
2018-04-11T18:18:49.782Z,18.60
2018-04-11T18:21:17.234Z,18.60
2018-04-11T18:23:44.736Z,18.60
2018-04-11T18:26:13.175Z,18.50
2018-04-11T18:28:40.687Z,18.50
2018-04-11T18:31:08.496Z,18.40
2018-04-11T18:33:37.529Z,18.30
2018-04-11T18:36:06.170Z,18.30
2018-04-11T18:38:34.213Z,18.30
2018-04-11T18:41:02.214Z,18.30
2018-04-11T18:43:29.656Z,18.20
2018-04-11T18:45:57.181Z,18.20
2018-04-11T18:48:25.226Z,18.10
2018-04-11T18:50:53.835Z,18.10
2018-04-11T18:53:21.859Z,18.10
2018-04-11T18:55:49.820Z,18.00
2018-04-11T18:58:17.271Z,18.00
2018-04-11T19:00:44.715Z,18.00
2018-04-11T19:03:12.503Z,17.90
2018-04-11T19:05:40.908Z,17.80
2018-04-11T19:08:09.155Z,17.80
2018-04-11T19:10:37.420Z,17.80
2018-04-11T19:13:06.766Z,17.70
2018-04-11T19:15:34.593Z,17.70
2018-04-11T19:18:02.371Z,17.80
2018-04-11T19:20:30.834Z,17.80
2018-04-11T19:22:58.511Z,17.80
2018-04-11T19:25:26.934Z,17.80
2018-04-11T19:27:54.507Z,17.80
2018-04-11T19:30:21.965Z,17.80
2018-04-11T19:32:49.612Z,17.70
2018-04-11T19:35:17.446Z,17.70
2018-04-11T19:37:45.689Z,17.50
2018-04-11T19:40:13.143Z,17.50
2018-04-11T19:42:40.828Z,17.50
2018-04-11T19:45:08.740Z,17.50
2018-04-11T19:47:36.738Z,17.40
2018-04-11T19:50:04.213Z,17.40
2018-04-11T19:52:31.940Z,17.40
2018-04-11T19:54:59.795Z,17.30
2018-04-11T19:57:27.282Z,17.30
2018-04-11T19:59:54.755Z,17.20
2018-04-11T20:02:22.475Z,17.20
2018-04-11T20:04:49.929Z,17.20
2018-04-11T20:07:17.919Z,17.10
2018-04-11T20:09:45.375Z,17.10
2018-04-11T20:12:12.865Z,17.10
2018-04-11T20:14:40.307Z,17.10
2018-04-11T20:17:08.079Z,17.10
2018-04-11T20:19:36.124Z,17.10
2018-04-11T20:22:04.112Z,17.10
2018-04-11T20:24:31.864Z,17.10
2018-04-11T20:26:59.327Z,17.00
2018-04-11T20:29:26.835Z,17.00
2018-04-11T20:31:54.401Z,17.00
2018-04-11T20:34:22.311Z,17.00
2018-04-11T20:36:50.103Z,17.00
2018-04-11T20:39:18.868Z,16.90
2018-04-11T20:41:46.975Z,16.90
2018-04-11T20:44:15.037Z,16.90
2018-04-11T20:46:42.468Z,16.90
2018-04-11T20:49:10.337Z,16.90
2018-04-11T20:51:38.425Z,16.90
2018-04-11T20:54:06.660Z,16.80
2018-04-11T20:56:34.544Z,16.80
2018-04-11T20:59:02.004Z,16.80
2018-04-11T21:01:29.508Z,16.80
2018-04-11T21:03:56.982Z,16.80
2018-04-11T21:06:24.866Z,16.80
2018-04-11T21:08:52.376Z,16.80
2018-04-11T21:11:20.363Z,16.80
2018-04-11T21:13:47.846Z,16.80
2018-04-11T21:16:15.528Z,16.80
2018-04-11T21:18:43.480Z,16.90
2018-04-11T21:21:10.887Z,16.90
2018-04-11T21:23:38.372Z,16.80
2018-04-11T21:26:06.162Z,16.80
2018-04-11T21:28:33.648Z,16.80
2018-04-11T21:31:02.020Z,16.70
2018-04-11T21:33:30.675Z,16.70
2018-04-11T21:35:58.652Z,16.70
2018-04-11T21:38:26.113Z,16.70
2018-04-11T21:40:55.712Z,16.60
2018-04-11T21:43:23.150Z,16.60
2018-04-11T21:45:51.443Z,16.70
2018-04-11T21:48:19.408Z,16.60
2018-04-11T21:50:46.873Z,16.60
2018-04-11T21:53:14.538Z,16.60
2018-04-11T21:55:42.468Z,16.60
2018-04-11T21:58:10.020Z,16.60
2018-04-11T22:00:37.465Z,16.50
2018-04-11T22:03:05.391Z,16.50
2018-04-11T22:05:32.834Z,16.50
2018-04-11T22:08:00.504Z,16.50
2018-04-11T22:10:28.363Z,16.50
2018-04-11T22:12:55.994Z,16.40
2018-04-11T22:15:24.571Z,16.40
2018-04-11T22:17:52.496Z,16.40
2018-04-11T22:20:19.928Z,16.40
2018-04-11T22:22:47.701Z,16.50
2018-04-11T22:25:15.155Z,16.50
2018-04-11T22:27:42.888Z,16.60
2018-04-11T22:30:10.857Z,16.60
2018-04-11T22:32:38.360Z,16.60
2018-04-11T22:35:07.120Z,16.60
2018-04-11T22:37:34.569Z,16.60
2018-04-11T22:40:02.084Z,16.50
2018-04-11T22:42:31.044Z,16.50
2018-04-11T22:44:59.012Z,16.40
2018-04-11T22:47:26.452Z,16.40
2018-04-11T22:49:53.917Z,16.40
2018-04-11T22:52:21.997Z,16.30
2018-04-11T22:54:50.058Z,16.30
2018-04-11T22:57:17.532Z,16.20
2018-04-11T22:59:44.996Z,16.20
2018-04-11T23:02:12.858Z,16.10
2018-04-11T23:04:41.095Z,16.10
2018-04-11T23:07:08.541Z,16.10
2018-04-11T23:09:36.041Z,16.10
2018-04-11T23:12:03.480Z,16.00
2018-04-11T23:14:31.207Z,16.00
2018-04-11T23:16:58.999Z,16.00
2018-04-11T23:19:26.883Z,16.00
2018-04-11T23:21:54.777Z,16.00
2018-04-11T23:24:23.490Z,16.00
2018-04-11T23:26:51.595Z,15.90
2018-04-11T23:29:19.078Z,15.90
2018-04-11T23:31:47.296Z,15.90
2018-04-11T23:34:14.998Z,15.90
2018-04-11T23:36:44.081Z,15.90
2018-04-11T23:39:11.529Z,15.90
2018-04-11T23:41:39.607Z,15.90
2018-04-11T23:44:07.061Z,15.90
2018-04-11T23:46:34.559Z,15.90
2018-04-11T23:49:02.776Z,15.80
2018-04-11T23:51:30.682Z,15.80
2018-04-11T23:53:59.243Z,15.70
2018-04-11T23:56:27.080Z,15.70
2018-04-11T23:58:54.925Z,15.70
